Time;durP1;ratioP1;P1;durP2;ratioP2;P2;SDS_P1;SDS_P2;PMS_P1;PMS_P2;Temp;Humidity;BMP_temperature;BMP_pressure;BME280_temperature;BME280_humidity;BME280_pressure;Samples;Min_cycle;Max_cycle;Signal;HPM_P1;HPM_P2
2019/04/25 00:00:51;;;;;;;3;1.7;;;;;;;9.78;50.69922;94661.03;;;;
2019/04/25 00:02:59;;;;;;;3;1.7;;;;;;;9.78;50.69922;94661.03;;;;
2019/04/25 00:04:00;;;;;;;3;1.7;;;;;;;9.78;50.69922;94661.03;;;;
2019/04/25 00:05:02;;;;;;;3.5;1.6;;;;;;;9.5;51.49316;94655.7;;;;
2019/04/25 00:06:05;;;;;;;3.5;1.6;;;;;;;9.5;51.49316;94655.7;;;;
2019/04/25 00:07:06;;;;;;;3.5;1.6;;;;;;;9.5;51.49316;94655.7;;;;
2019/04/25 00:08:07;;;;;;;3.5;1.6;;;;;;;9.5;51.49316;94655.7;;;;
2019/04/25 00:09:13;;;;;;;3.5;1.6;;;;;;;9.5;51.49316;94655.7;;;;
2019/04/25 00:10:14;;;;;;;3.5;1.6;;;;;;;9.5;51.49316;94655.7;;;;
2019/04/25 00:11:15;;;;;;;3.5;1.6;;;;;;;9.5;51.49316;94655.7;;;;
2019/04/25 00:12:16;;;;;;;3.5;1.6;;;;;;;9.5;51.49316;94655.7;;;;
2019/04/25 00:13:17;;;;;;;3.5;1.6;;;;;;;9.5;51.49316;94655.7;;;;
2019/04/25 00:14:18;;;;;;;3.5;1.6;;;;;;;9.5;51.49316;94655.7;;;;
2019/04/25 00:15:19;;;;;;;2;1.6;;;;;;;9.31;52.18945;94653.9;;;;
2019/04/25 00:16:22;;;;;;;2;1.6;;;;;;;9.31;52.18945;94653.9;;;;
2019/04/25 00:17:24;;;;;;;2;1.6;;;;;;;9.31;52.18945;94653.9;;;;
2019/04/25 00:18:25;;;;;;;2;1.6;;;;;;;9.31;52.18945;94653.9;;;;
2019/04/25 00:19:26;;;;;;;2;1.6;;;;;;;9.31;52.18945;94653.9;;;;
2019/04/25 00:20:29;;;;;;;2;1.6;;;;;;;9.31;52.18945;94653.9;;;;
2019/04/25 00:21:41;;;;;;;2;1.6;;;;;;;9.31;52.18945;94653.9;;;;
2019/04/25 00:22:48;;;;;;;2;1.6;;;;;;;9.31;52.18945;94653.9;;;;
2019/04/25 00:23:53;;;;;;;2;1.6;;;;;;;9.31;52.18945;94653.9;;;;
2019/04/25 00:25:04;;;;;;;2;1.6;;;;;;;9.31;52.18945;94653.9;;;;
2019/04/25 00:26:14;;;;;;;4.400001;1.9;;;;;;;9.06;52.80566;94664.12;;;;
2019/04/25 00:27:16;;;;;;;4.400001;1.9;;;;;;;9.06;52.80566;94664.12;;;;
2019/04/25 00:28:18;;;;;;;4.400001;1.9;;;;;;;9.06;52.80566;94664.12;;;;
2019/04/25 00:29:19;;;;;;;4.400001;1.9;;;;;;;9.06;52.80566;94664.12;;;;
2019/04/25 00:30:22;;;;;;;4.400001;1.9;;;;;;;9.06;52.80566;94664.12;;;;
2019/04/25 00:31:23;;;;;;;4.400001;1.9;;;;;;;9.06;52.80566;94664.12;;;;
2019/04/25 00:32:24;;;;;;;4.400001;1.9;;;;;;;9.06;52.80566;94664.12;;;;
2019/04/25 00:33:25;;;;;;;4.400001;1.9;;;;;;;9.06;52.80566;94664.12;;;;
2019/04/25 00:34:26;;;;;;;4.400001;1.9;;;;;;;9.06;52.80566;94664.12;;;;
2019/04/25 00:35:27;;;;;;;4.400001;1.9;;;;;;;9.06;52.80566;94664.12;;;;
2019/04/25 00:36:28;;;;;;;4;1.85;;;;;;;8.94;53.59473;94682.17;;;;
2019/04/25 00:37:29;;;;;;;4;1.85;;;;;;;8.94;53.59473;94682.17;;;;
2019/04/25 00:38:30;;;;;;;4;1.85;;;;;;;8.94;53.59473;94682.17;;;;
2019/04/25 00:39:31;;;;;;;4;1.85;;;;;;;8.94;53.59473;94682.17;;;;
2019/04/25 00:40:32;;;;;;;4;1.85;;;;;;;8.94;53.59473;94682.17;;;;
2019/04/25 00:41:33;;;;;;;4;1.85;;;;;;;8.94;53.59473;94682.17;;;;
2019/04/25 00:42:34;;;;;;;4;1.85;;;;;;;8.94;53.59473;94682.17;;;;
2019/04/25 00:43:36;;;;;;;4;1.85;;;;;;;8.94;53.59473;94682.17;;;;
2019/04/25 00:44:37;;;;;;;4;1.85;;;;;;;8.94;53.59473;94682.17;;;;
2019/04/25 00:45:38;;;;;;;4;1.85;;;;;;;8.94;53.59473;94682.17;;;;
2019/04/25 00:46:39;;;;;;;4;1.85;;;;;;;8.94;53.59473;94682.17;;;;
2019/04/25 00:47:40;;;;;;;3.45;1.7;;;;;;;8.91;54.33105;94676.87;;;;
2019/04/25 00:48:41;;;;;;;3.45;1.7;;;;;;;8.91;54.33105;94676.87;;;;
2019/04/25 00:49:42;;;;;;;3.45;1.7;;;;;;;8.91;54.33105;94676.87;;;;
2019/04/25 00:50:43;;;;;;;3.45;1.7;;;;;;;8.91;54.33105;94676.87;;;;
2019/04/25 00:51:44;;;;;;;3.45;1.7;;;;;;;8.91;54.33105;94676.87;;;;
2019/04/25 00:52:45;;;;;;;3.45;1.7;;;;;;;8.91;54.33105;94676.87;;;;
2019/04/25 00:53:46;;;;;;;3.45;1.7;;;;;;;8.91;54.33105;94676.87;;;;
2019/04/25 00:54:47;;;;;;;3.45;1.7;;;;;;;8.91;54.33105;94676.87;;;;
2019/04/25 00:55:48;;;;;;;3.45;1.7;;;;;;;8.91;54.33105;94676.87;;;;
2019/04/25 00:56:49;;;;;;;3.45;1.7;;;;;;;8.91;54.33105;94676.87;;;;
2019/04/25 00:57:54;;;;;;;4.75;1.75;;;;;;;9.04;54.55078;94677.11;;;;
2019/04/25 01:04:04;;;;;;;4.75;1.75;;;;;;;9.04;54.55078;94677.11;;;;
2019/04/25 01:05:05;;;;;;;4.75;1.75;;;;;;;9.04;54.55078;94677.11;;;;
2019/04/25 01:06:07;;;;;;;4.75;1.75;;;;;;;9.04;54.55078;94677.11;;;;
2019/04/25 01:07:08;;;;;;;4.75;1.75;;;;;;;9.04;54.55078;94677.11;;;;
2019/04/25 01:08:09;;;;;;;4.55;1.9;;;;;;;8.97;54.81055;94679.02;;;;
2019/04/25 01:09:14;;;;;;;4.55;1.9;;;;;;;8.97;54.81055;94679.02;;;;
2019/04/25 01:10:15;;;;;;;4.55;1.9;;;;;;;8.97;54.81055;94679.02;;;;
2019/04/25 01:11:17;;;;;;;4.55;1.9;;;;;;;8.97;54.81055;94679.02;;;;
2019/04/25 01:12:18;;;;;;;4.55;1.9;;;;;;;8.97;54.81055;94679.02;;;;
2019/04/25 01:13:19;;;;;;;4.55;1.9;;;;;;;8.97;54.81055;94679.02;;;;
2019/04/25 01:14:20;;;;;;;4.55;1.9;;;;;;;8.97;54.81055;94679.02;;;;
2019/04/25 01:15:21;;;;;;;4.55;1.9;;;;;;;8.97;54.81055;94679.02;;;;
2019/04/25 01:16:23;;;;;;;4.55;1.9;;;;;;;8.97;54.81055;94679.02;;;;
2019/04/25 01:17:24;;;;;;;4.55;1.9;;;;;;;8.97;54.81055;94679.02;;;;
2019/04/25 01:18:25;;;;;;;4.55;1.9;;;;;;;8.97;54.81055;94679.02;;;;
2019/04/25 01:19:26;;;;;;;3.25;1.9;;;;;;;8.91;55.16797;94668.27;;;;
2019/04/25 01:20:28;;;;;;;3.25;1.9;;;;;;;8.91;55.16797;94668.27;;;;
2019/04/25 01:21:29;;;;;;;3.25;1.9;;;;;;;8.91;55.16797;94668.27;;;;
2019/04/25 01:22:30;;;;;;;3.25;1.9;;;;;;;8.91;55.16797;94668.27;;;;
2019/04/25 01:23:31;;;;;;;3.25;1.9;;;;;;;8.91;55.16797;94668.27;;;;
2019/04/25 01:24:32;;;;;;;3.25;1.9;;;;;;;8.91;55.16797;94668.27;;;;
2019/04/25 01:25:33;;;;;;;3.25;1.9;;;;;;;8.91;55.16797;94668.27;;;;
2019/04/25 01:26:34;;;;;;;3.25;1.9;;;;;;;8.91;55.16797;94668.27;;;;
2019/04/25 01:27:35;;;;;;;3.25;1.9;;;;;;;8.91;55.16797;94668.27;;;;
2019/04/25 01:28:36;;;;;;;3.25;1.9;;;;;;;8.91;55.16797;94668.27;;;;
2019/04/25 01:29:38;;;;;;;4.7;1.9;;;;;;;8.71;55.68945;94655.35;;;;
2019/04/25 01:30:39;;;;;;;4.7;1.9;;;;;;;8.71;55.68945;94655.35;;;;
2019/04/25 01:31:40;;;;;;;4.7;1.9;;;;;;;8.71;55.68945;94655.35;;;;
2019/04/25 01:32:41;;;;;;;4.7;1.9;;;;;;;8.71;55.68945;94655.35;;;;
2019/04/25 01:33:42;;;;;;;4.7;1.9;;;;;;;8.71;55.68945;94655.35;;;;
2019/04/25 01:34:49;;;;;;;4.7;1.9;;;;;;;8.71;55.68945;94655.35;;;;
2019/04/25 01:36:31;;;;;;;4.7;1.9;;;;;;;8.71;55.68945;94655.35;;;;
2019/04/25 01:37:42;;;;;;;4.7;1.9;;;;;;;8.71;55.68945;94655.35;;;;
2019/04/25 01:39:07;;;;;;;4.7;1.9;;;;;;;8.71;55.68945;94655.35;;;;
2019/04/25 01:45:17;;;;;;;4;2;;;;;;;8.6;56.23145;94652.58;;;;
2019/04/25 01:46:20;;;;;;;4;2;;;;;;;8.6;56.23145;94652.58;;;;
2019/04/25 01:47:21;;;;;;;4;2;;;;;;;8.6;56.23145;94652.58;;;;
2019/04/25 01:48:23;;;;;;;4;2;;;;;;;8.6;56.23145;94652.58;;;;
2019/04/25 01:49:24;;;;;;;4;2;;;;;;;8.6;56.23145;94652.58;;;;
2019/04/25 01:50:25;;;;;;;4;2;;;;;;;8.6;56.23145;94652.58;;;;
2019/04/25 01:51:26;;;;;;;4.4;1.9;;;;;;;8.52;57.89063;94652.15;;;;
2019/04/25 01:52:27;;;;;;;4.4;1.9;;;;;;;8.52;57.89063;94652.15;;;;
2019/04/25 01:53:28;;;;;;;4.4;1.9;;;;;;;8.52;57.89063;94652.15;;;;
2019/04/25 01:54:29;;;;;;;4.4;1.9;;;;;;;8.52;57.89063;94652.15;;;;
2019/04/25 01:55:30;;;;;;;4.4;1.9;;;;;;;8.52;57.89063;94652.15;;;;
2019/04/25 01:56:32;;;;;;;4.4;1.9;;;;;;;8.52;57.89063;94652.15;;;;
2019/04/25 01:57:33;;;;;;;4.4;1.9;;;;;;;8.52;57.89063;94652.15;;;;
2019/04/25 01:58:34;;;;;;;4.4;1.9;;;;;;;8.52;57.89063;94652.15;;;;
2019/04/25 01:59:35;;;;;;;4.4;1.9;;;;;;;8.52;57.89063;94652.15;;;;
2019/04/25 02:00:40;;;;;;;4.4;1.9;;;;;;;8.52;57.89063;94652.15;;;;
2019/04/25 02:01:42;;;;;;;3.4;1.95;;;;;;;8.54;58.08691;94643.73;;;;
2019/04/25 02:02:44;;;;;;;3.4;1.95;;;;;;;8.54;58.08691;94643.73;;;;
2019/04/25 02:03:45;;;;;;;3.4;1.95;;;;;;;8.54;58.08691;94643.73;;;;
2019/04/25 02:04:46;;;;;;;3.4;1.95;;;;;;;8.54;58.08691;94643.73;;;;
2019/04/25 02:05:47;;;;;;;3.4;1.95;;;;;;;8.54;58.08691;94643.73;;;;
2019/04/25 02:06:48;;;;;;;3.4;1.95;;;;;;;8.54;58.08691;94643.73;;;;
2019/04/25 02:07:49;;;;;;;3.4;1.95;;;;;;;8.54;58.08691;94643.73;;;;
2019/04/25 02:08:51;;;;;;;3.4;1.95;;;;;;;8.54;58.08691;94643.73;;;;
2019/04/25 02:09:52;;;;;;;3.4;1.95;;;;;;;8.54;58.08691;94643.73;;;;
2019/04/25 02:11:07;;;;;;;3.4;1.95;;;;;;;8.54;58.08691;94643.73;;;;
2019/04/25 02:12:20;;;;;;;3;2.25;;;;;;;8.44;58.58594;94647.96;;;;
2019/04/25 02:13:22;;;;;;;3;2.25;;;;;;;8.44;58.58594;94647.96;;;;
2019/04/25 02:14:23;;;;;;;3;2.25;;;;;;;8.44;58.58594;94647.96;;;;
2019/04/25 02:15:27;;;;;;;3;2.25;;;;;;;8.44;58.58594;94647.96;;;;
2019/04/25 02:16:29;;;;;;;3;2.25;;;;;;;8.44;58.58594;94647.96;;;;
2019/04/25 02:17:30;;;;;;;3;2.25;;;;;;;8.44;58.58594;94647.96;;;;
2019/04/25 02:18:31;;;;;;;3;2.25;;;;;;;8.44;58.58594;94647.96;;;;
2019/04/25 02:19:32;;;;;;;3;2.25;;;;;;;8.44;58.58594;94647.96;;;;
2019/04/25 02:20:33;;;;;;;3;2.25;;;;;;;8.44;58.58594;94647.96;;;;
2019/04/25 02:21:34;;;;;;;3;2.25;;;;;;;8.44;58.58594;94647.96;;;;
2019/04/25 02:22:35;;;;;;;4.45;2.3;;;;;;;8.41;58.84961;94642.13;;;;
2019/04/25 02:23:36;;;;;;;4.45;2.3;;;;;;;8.41;58.84961;94642.13;;;;
2019/04/25 02:24:37;;;;;;;4.45;2.3;;;;;;;8.41;58.84961;94642.13;;;;
2019/04/25 02:25:39;;;;;;;4.45;2.3;;;;;;;8.41;58.84961;94642.13;;;;
2019/04/25 02:26:40;;;;;;;4.45;2.3;;;;;;;8.41;58.84961;94642.13;;;;
2019/04/25 02:27:41;;;;;;;4.45;2.3;;;;;;;8.41;58.84961;94642.13;;;;
2019/04/25 02:28:42;;;;;;;4.45;2.3;;;;;;;8.41;58.84961;94642.13;;;;
2019/04/25 02:29:43;;;;;;;4.45;2.3;;;;;;;8.41;58.84961;94642.13;;;;
2019/04/25 02:30:44;;;;;;;4.45;2.3;;;;;;;8.41;58.84961;94642.13;;;;
2019/04/25 02:31:45;;;;;;;4.45;2.3;;;;;;;8.41;58.84961;94642.13;;;;
2019/04/25 02:32:46;;;;;;;4.45;2.3;;;;;;;8.41;58.84961;94642.13;;;;
2019/04/25 02:33:48;;;;;;;3.9;2.1;;;;;;;8.24;59.13672;94650.62;;;;
2019/04/25 02:34:49;;;;;;;3.9;2.1;;;;;;;8.24;59.13672;94650.62;;;;
2019/04/25 02:35:50;;;;;;;3.9;2.1;;;;;;;8.24;59.13672;94650.62;;;;
2019/04/25 02:36:51;;;;;;;3.9;2.1;;;;;;;8.24;59.13672;94650.62;;;;
2019/04/25 02:37:52;;;;;;;3.9;2.1;;;;;;;8.24;59.13672;94650.62;;;;
2019/04/25 02:38:53;;;;;;;3.9;2.1;;;;;;;8.24;59.13672;94650.62;;;;
2019/04/25 02:39:54;;;;;;;3.9;2.1;;;;;;;8.24;59.13672;94650.62;;;;
2019/04/25 02:40:55;;;;;;;3.9;2.1;;;;;;;8.24;59.13672;94650.62;;;;
2019/04/25 02:41:56;;;;;;;3.9;2.1;;;;;;;8.24;59.13672;94650.62;;;;
2019/04/25 02:42:58;;;;;;;3.9;2.1;;;;;;;8.24;59.13672;94650.62;;;;
2019/04/25 02:43:59;;;;;;;4.55;2.55;;;;;;;8.19;59.65332;94651.42;;;;
2019/04/25 02:45:13;;;;;;;4.55;2.55;;;;;;;8.19;59.65332;94651.42;;;;
2019/04/25 02:46:55;;;;;;;4.55;2.55;;;;;;;8.19;59.65332;94651.42;;;;
2019/04/25 02:48:26;;;;;;;4.55;2.55;;;;;;;8.19;59.65332;94651.42;;;;
2019/04/25 02:49:41;;;;;;;4.55;2.55;;;;;;;8.19;59.65332;94651.42;;;;
2019/04/25 02:50:49;;;;;;;4.55;2.55;;;;;;;8.19;59.65332;94651.42;;;;
2019/04/25 02:51:56;;;;;;;4.55;2.55;;;;;;;8.19;59.65332;94651.42;;;;
2019/04/25 02:53:05;;;;;;;4.55;2.55;;;;;;;8.19;59.65332;94651.42;;;;
2019/04/25 02:54:06;;;;;;;4.55;2.55;;;;;;;8.19;59.65332;94651.42;;;;
2019/04/25 02:55:08;;;;;;;6.25;2.7;;;;;;;8.1;59.9082;94649.74;;;;
2019/04/25 02:56:09;;;;;;;6.25;2.7;;;;;;;8.1;59.9082;94649.74;;;;
2019/04/25 02:57:10;;;;;;;6.25;2.7;;;;;;;8.1;59.9082;94649.74;;;;
2019/04/25 02:58:11;;;;;;;6.25;2.7;;;;;;;8.1;59.9082;94649.74;;;;
2019/04/25 02:59:12;;;;;;;6.25;2.7;;;;;;;8.1;59.9082;94649.74;;;;
2019/04/25 03:00:13;;;;;;;6.25;2.7;;;;;;;8.1;59.9082;94649.74;;;;
2019/04/25 03:01:20;;;;;;;6.25;2.7;;;;;;;8.1;59.9082;94649.74;;;;
2019/04/25 03:02:21;;;;;;;6.25;2.7;;;;;;;8.1;59.9082;94649.74;;;;
2019/04/25 03:03:23;;;;;;;6.25;2.7;;;;;;;8.1;59.9082;94649.74;;;;
2019/04/25 03:04:24;;;;;;;6.25;2.7;;;;;;;8.1;59.9082;94649.74;;;;
2019/04/25 03:05:25;;;;;;;9.15;2.7;;;;;;;8.09;60.21582;94635.61;;;;
2019/04/25 03:06:26;;;;;;;9.15;2.7;;;;;;;8.09;60.21582;94635.61;;;;
2019/04/25 03:07:27;;;;;;;9.15;2.7;;;;;;;8.09;60.21582;94635.61;;;;
2019/04/25 03:08:28;;;;;;;9.15;2.7;;;;;;;8.09;60.21582;94635.61;;;;
2019/04/25 03:09:29;;;;;;;9.15;2.7;;;;;;;8.09;60.21582;94635.61;;;;
2019/04/25 03:10:30;;;;;;;9.15;2.7;;;;;;;8.09;60.21582;94635.61;;;;
2019/04/25 03:11:31;;;;;;;9.15;2.7;;;;;;;8.09;60.21582;94635.61;;;;
2019/04/25 03:12:32;;;;;;;9.15;2.7;;;;;;;8.09;60.21582;94635.61;;;;
2019/04/25 03:13:33;;;;;;;9.15;2.7;;;;;;;8.09;60.21582;94635.61;;;;
2019/04/25 03:14:34;;;;;;;9.15;2.7;;;;;;;8.09;60.21582;94635.61;;;;
2019/04/25 03:15:35;;;;;;;5.15;2.15;;;;;;;8.04;60.63672;94646.67;;;;
2019/04/25 03:16:36;;;;;;;5.15;2.15;;;;;;;8.04;60.63672;94646.67;;;;
2019/04/25 03:17:37;;;;;;;5.15;2.15;;;;;;;8.04;60.63672;94646.67;;;;
2019/04/25 03:18:50;;;;;;;5.15;2.15;;;;;;;8.04;60.63672;94646.67;;;;
2019/04/25 03:25:00;;;;;;;5.15;2.15;;;;;;;8.04;60.63672;94646.67;;;;
2019/04/25 03:26:01;;;;;;;5.15;2.15;;;;;;;8.04;60.63672;94646.67;;;;
2019/04/25 03:27:03;;;;;;;8.35;2.8;;;;;;;8.1;61.27539;94633.61;;;;
2019/04/25 03:28:04;;;;;;;8.35;2.8;;;;;;;8.1;61.27539;94633.61;;;;
2019/04/25 03:29:05;;;;;;;8.35;2.8;;;;;;;8.1;61.27539;94633.61;;;;
2019/04/25 03:30:06;;;;;;;8.35;2.8;;;;;;;8.1;61.27539;94633.61;;;;
2019/04/25 03:31:07;;;;;;;8.35;2.8;;;;;;;8.1;61.27539;94633.61;;;;
2019/04/25 03:32:08;;;;;;;8.35;2.8;;;;;;;8.1;61.27539;94633.61;;;;
2019/04/25 03:33:09;;;;;;;8.35;2.8;;;;;;;8.1;61.27539;94633.61;;;;
2019/04/25 03:34:10;;;;;;;8.35;2.8;;;;;;;8.1;61.27539;94633.61;;;;
2019/04/25 03:35:11;;;;;;;8.35;2.8;;;;;;;8.1;61.27539;94633.61;;;;
2019/04/25 03:36:12;;;;;;;8.35;2.8;;;;;;;8.1;61.27539;94633.61;;;;
2019/04/25 03:37:13;;;;;;;8.35;2.8;;;;;;;8.1;61.27539;94633.61;;;;
2019/04/25 03:38:15;;;;;;;8.35;2.8;;;;;;;8.1;61.27539;94633.61;;;;
2019/04/25 03:39:16;;;;;;;8.35;2.8;;;;;;;8.1;61.27539;94633.61;;;;
2019/04/25 03:40:17;;;;;;;8.35;2.8;;;;;;;8.1;61.27539;94633.61;;;;
2019/04/25 03:41:18;;;;;;;8.35;2.8;;;;;;;8.1;61.27539;94633.61;;;;
2019/04/25 03:42:19;;;;;;;8.35;2.8;;;;;;;8.1;61.27539;94633.61;;;;
2019/04/25 03:43:20;;;;;;;8.35;2.8;;;;;;;8.1;61.27539;94633.61;;;;
2019/04/25 03:44:21;;;;;;;8.35;2.8;;;;;;;8.1;61.27539;94633.61;;;;
2019/04/25 03:45:22;;;;;;;8.35;2.8;;;;;;;8.1;61.27539;94633.61;;;;
2019/04/25 03:46:23;;;;;;;8.35;2.8;;;;;;;8.1;61.27539;94633.61;;;;
2019/04/25 03:47:24;;;;;;;3.899999;2.5;;;;;;;8.18;61.9502;94649.8;;;;
2019/04/25 03:48:26;;;;;;;3.899999;2.5;;;;;;;8.18;61.9502;94649.8;;;;
2019/04/25 03:49:27;;;;;;;3.899999;2.5;;;;;;;8.18;61.9502;94649.8;;;;
2019/04/25 03:50:28;;;;;;;3.899999;2.5;;;;;;;8.18;61.9502;94649.8;;;;
2019/04/25 03:51:29;;;;;;;3.899999;2.5;;;;;;;8.18;61.9502;94649.8;;;;
2019/04/25 03:52:30;;;;;;;3.899999;2.5;;;;;;;8.18;61.9502;94649.8;;;;
2019/04/25 03:53:31;;;;;;;3.899999;2.5;;;;;;;8.18;61.9502;94649.8;;;;
2019/04/25 03:54:32;;;;;;;3.899999;2.5;;;;;;;8.18;61.9502;94649.8;;;;
2019/04/25 03:55:33;;;;;;;3.899999;2.5;;;;;;;8.18;61.9502;94649.8;;;;
2019/04/25 03:56:34;;;;;;;3.899999;2.5;;;;;;;8.18;61.9502;94649.8;;;;
2019/04/25 03:57:35;;;;;;;3.899999;2.5;;;;;;;8.18;61.9502;94649.8;;;;
2019/04/25 03:58:36;;;;;;;2.8;2.2;;;;;;;8.24;62.73828;94649.28;;;;
2019/04/25 03:59:37;;;;;;;2.8;2.2;;;;;;;8.24;62.73828;94649.28;;;;
2019/04/25 04:00:38;;;;;;;2.8;2.2;;;;;;;8.24;62.73828;94649.28;;;;
2019/04/25 04:01:39;;;;;;;2.8;2.2;;;;;;;8.24;62.73828;94649.28;;;;
2019/04/25 04:02:41;;;;;;;2.8;2.2;;;;;;;8.24;62.73828;94649.28;;;;
2019/04/25 04:03:42;;;;;;;2.8;2.2;;;;;;;8.24;62.73828;94649.28;;;;
2019/04/25 04:04:43;;;;;;;2.8;2.2;;;;;;;8.24;62.73828;94649.28;;;;
2019/04/25 04:05:44;;;;;;;2.8;2.2;;;;;;;8.24;62.73828;94649.28;;;;
2019/04/25 04:06:45;;;;;;;2.8;2.2;;;;;;;8.24;62.73828;94649.28;;;;
2019/04/25 04:07:46;;;;;;;2.8;2.2;;;;;;;8.24;62.73828;94649.28;;;;
2019/04/25 04:08:47;;;;;;;5.500001;2.75;;;;;;;8.34;62.91211;94655.41;;;;
2019/04/25 04:09:48;;;;;;;5.500001;2.75;;;;;;;8.34;62.91211;94655.41;;;;
2019/04/25 04:10:49;;;;;;;5.500001;2.75;;;;;;;8.34;62.91211;94655.41;;;;
2019/04/25 04:11:50;;;;;;;5.500001;2.75;;;;;;;8.34;62.91211;94655.41;;;;
2019/04/25 04:12:51;;;;;;;5.500001;2.75;;;;;;;8.34;62.91211;94655.41;;;;
2019/04/25 04:13:53;;;;;;;5.500001;2.75;;;;;;;8.34;62.91211;94655.41;;;;
2019/04/25 04:14:54;;;;;;;5.500001;2.75;;;;;;;8.34;62.91211;94655.41;;;;
2019/04/25 04:15:55;;;;;;;5.500001;2.75;;;;;;;8.34;62.91211;94655.41;;;;
2019/04/25 04:18:03;;;;;;;5.500001;2.75;;;;;;;8.34;62.91211;94655.41;;;;
2019/04/25 04:19:05;;;;;;;7.45;3.1;;;;;;;8.33;62.93164;94658.2;;;;
2019/04/25 04:20:26;;;;;;;7.45;3.1;;;;;;;8.33;62.93164;94658.2;;;;
2019/04/25 04:22:05;;;;;;;7.45;3.1;;;;;;;8.33;62.93164;94658.2;;;;
2019/04/25 04:23:13;;;;;;;7.45;3.1;;;;;;;8.33;62.93164;94658.2;;;;
2019/04/25 04:24:25;;;;;;;7.45;3.1;;;;;;;8.33;62.93164;94658.2;;;;
2019/04/25 04:25:26;;;;;;;7.45;3.1;;;;;;;8.33;62.93164;94658.2;;;;
2019/04/25 04:26:27;;;;;;;7.45;3.1;;;;;;;8.33;62.93164;94658.2;;;;
2019/04/25 04:27:28;;;;;;;7.45;3.1;;;;;;;8.33;62.93164;94658.2;;;;
2019/04/25 04:28:29;;;;;;;7.45;3.1;;;;;;;8.33;62.93164;94658.2;;;;
2019/04/25 04:29:30;;;;;;;7.45;3.1;;;;;;;8.33;62.93164;94658.2;;;;
2019/04/25 04:30:31;;;;;;;7.45;3.1;;;;;;;8.33;62.93164;94658.2;;;;
2019/04/25 04:31:32;;;;;;;7.45;3.1;;;;;;;8.33;62.93164;94658.2;;;;
2019/04/25 04:32:33;;;;;;;7.45;3.1;;;;;;;8.33;62.93164;94658.2;;;;
2019/04/25 04:33:34;;;;;;;7.45;3.1;;;;;;;8.33;62.93164;94658.2;;;;
2019/04/25 04:34:36;;;;;;;7.45;3.1;;;;;;;8.33;62.93164;94658.2;;;;
2019/04/25 04:35:37;;;;;;;7.45;3.1;;;;;;;8.33;62.93164;94658.2;;;;
2019/04/25 04:36:38;;;;;;;7.45;3.1;;;;;;;8.33;62.93164;94658.2;;;;
2019/04/25 04:37:39;;;;;;;7.45;3.1;;;;;;;8.33;62.93164;94658.2;;;;
2019/04/25 04:38:40;;;;;;;7.45;3.1;;;;;;;8.33;62.93164;94658.2;;;;
2019/04/25 04:39:41;;;;;;;7.45;3.1;;;;;;;8.33;62.93164;94658.2;;;;
2019/04/25 04:40:42;;;;;;;6.749999;2.55;;;;;;;8.49;64.04492;94656.67;;;;
2019/04/25 04:41:43;;;;;;;6.749999;2.55;;;;;;;8.49;64.04492;94656.67;;;;
2019/04/25 04:42:44;;;;;;;6.749999;2.55;;;;;;;8.49;64.04492;94656.67;;;;
2019/04/25 04:43:45;;;;;;;6.749999;2.55;;;;;;;8.49;64.04492;94656.67;;;;
2019/04/25 04:44:46;;;;;;;6.749999;2.55;;;;;;;8.49;64.04492;94656.67;;;;
2019/04/25 04:45:47;;;;;;;6.749999;2.55;;;;;;;8.49;64.04492;94656.67;;;;
2019/04/25 04:46:48;;;;;;;6.749999;2.55;;;;;;;8.49;64.04492;94656.67;;;;
2019/04/25 04:47:49;;;;;;;6.749999;2.55;;;;;;;8.49;64.04492;94656.67;;;;
2019/04/25 04:48:50;;;;;;;6.749999;2.55;;;;;;;8.49;64.04492;94656.67;;;;
2019/04/25 04:49:51;;;;;;;6.749999;2.55;;;;;;;8.49;64.04492;94656.67;;;;
2019/04/25 04:50:52;;;;;;;6.749999;2.55;;;;;;;8.49;64.04492;94656.67;;;;
2019/04/25 04:51:54;;;;;;;6.749999;2.55;;;;;;;8.49;64.04492;94656.67;;;;
2019/04/25 04:52:55;;;;;;;6.749999;2.55;;;;;;;8.49;64.04492;94656.67;;;;
2019/04/25 04:53:56;;;;;;;6.749999;2.55;;;;;;;8.49;64.04492;94656.67;;;;
2019/04/25 04:54:57;;;;;;;6.749999;2.55;;;;;;;8.49;64.04492;94656.67;;;;
2019/04/25 04:55:58;;;;;;;6.749999;2.55;;;;;;;8.49;64.04492;94656.67;;;;
2019/04/25 04:56:59;;;;;;;6.749999;2.55;;;;;;;8.49;64.04492;94656.67;;;;
2019/04/25 04:58:00;;;;;;;6.749999;2.55;;;;;;;8.49;64.04492;94656.67;;;;
2019/04/25 04:59:01;;;;;;;6.749999;2.55;;;;;;;8.49;64.04492;94656.67;;;;
2019/04/25 05:00:02;;;;;;;6.749999;2.55;;;;;;;8.49;64.04492;94656.67;;;;
2019/04/25 05:01:04;;;;;;;6.749999;2.55;;;;;;;8.49;64.04492;94656.67;;;;
2019/04/25 05:02:15;;;;;;;4.699999;2.6;;;;;;;8.96;64.49902;94669.7;;;;
2019/04/25 05:03:24;;;;;;;4.699999;2.6;;;;;;;8.96;64.49902;94669.7;;;;
2019/04/25 05:04:30;;;;;;;4.699999;2.6;;;;;;;8.96;64.49902;94669.7;;;;
2019/04/25 05:05:42;;;;;;;4.699999;2.6;;;;;;;8.96;64.49902;94669.7;;;;
2019/04/25 05:06:51;;;;;;;4.699999;2.6;;;;;;;8.96;64.49902;94669.7;;;;
2019/04/25 05:07:55;;;;;;;4.699999;2.6;;;;;;;8.96;64.49902;94669.7;;;;
2019/04/25 05:09:05;;;;;;;4.699999;2.6;;;;;;;8.96;64.49902;94669.7;;;;
2019/04/25 05:10:07;;;;;;;4.699999;2.6;;;;;;;8.96;64.49902;94669.7;;;;
2019/04/25 05:11:08;;;;;;;4.699999;2.6;;;;;;;8.96;64.49902;94669.7;;;;
2019/04/25 05:12:09;;;;;;;5;2.5;;;;;;;9.26;64.75781;94676.72;;;;
2019/04/25 05:13:10;;;;;;;5;2.5;;;;;;;9.26;64.75781;94676.72;;;;
2019/04/25 05:14:11;;;;;;;5;2.5;;;;;;;9.26;64.75781;94676.72;;;;
2019/04/25 05:15:12;;;;;;;5;2.5;;;;;;;9.26;64.75781;94676.72;;;;
2019/04/25 05:16:14;;;;;;;5;2.5;;;;;;;9.26;64.75781;94676.72;;;;
2019/04/25 05:17:15;;;;;;;5;2.5;;;;;;;9.26;64.75781;94676.72;;;;
2019/04/25 05:18:16;;;;;;;5;2.5;;;;;;;9.26;64.75781;94676.72;;;;
2019/04/25 05:19:17;;;;;;;5;2.5;;;;;;;9.26;64.75781;94676.72;;;;
2019/04/25 05:20:18;;;;;;;5;2.5;;;;;;;9.26;64.75781;94676.72;;;;
2019/04/25 05:21:19;;;;;;;5;2.5;;;;;;;9.26;64.75781;94676.72;;;;
2019/04/25 05:22:21;;;;;;;5;2.5;;;;;;;9.26;64.75781;94676.72;;;;
2019/04/25 05:23:22;;;;;;;4.3;2.8;;;;;;;9.62;64.99316;94685.28;;;;
2019/04/25 05:24:23;;;;;;;4.3;2.8;;;;;;;9.62;64.99316;94685.28;;;;
2019/04/25 05:25:24;;;;;;;4.3;2.8;;;;;;;9.62;64.99316;94685.28;;;;
2019/04/25 05:26:25;;;;;;;4.3;2.8;;;;;;;9.62;64.99316;94685.28;;;;
2019/04/25 05:27:26;;;;;;;4.3;2.8;;;;;;;9.62;64.99316;94685.28;;;;
2019/04/25 05:28:27;;;;;;;4.3;2.8;;;;;;;9.62;64.99316;94685.28;;;;
2019/04/25 05:29:28;;;;;;;4.3;2.8;;;;;;;9.62;64.99316;94685.28;;;;
2019/04/25 05:30:36;;;;;;;4.3;2.8;;;;;;;9.62;64.99316;94685.28;;;;
2019/04/25 05:31:44;;;;;;;4.3;2.8;;;;;;;9.62;64.99316;94685.28;;;;
2019/04/25 05:32:45;;;;;;;4.3;2.8;;;;;;;9.62;64.99316;94685.28;;;;
2019/04/25 05:33:46;;;;;;;6.149999;2.4;;;;;;;10.1;64.57129;94676.92;;;;
2019/04/25 05:34:47;;;;;;;6.149999;2.4;;;;;;;10.1;64.57129;94676.92;;;;
2019/04/25 05:35:48;;;;;;;6.149999;2.4;;;;;;;10.1;64.57129;94676.92;;;;
2019/04/25 05:36:49;;;;;;;6.149999;2.4;;;;;;;10.1;64.57129;94676.92;;;;
2019/04/25 05:37:50;;;;;;;6.149999;2.4;;;;;;;10.1;64.57129;94676.92;;;;
2019/04/25 05:38:51;;;;;;;6.149999;2.4;;;;;;;10.1;64.57129;94676.92;;;;
2019/04/25 05:39:52;;;;;;;6.149999;2.4;;;;;;;10.1;64.57129;94676.92;;;;
2019/04/25 05:40:58;;;;;;;6.149999;2.4;;;;;;;10.1;64.57129;94676.92;;;;
2019/04/25 05:43:13;;;;;;;6.149999;2.4;;;;;;;10.1;64.57129;94676.92;;;;
2019/04/25 05:44:14;;;;;;;5.499999;2.3;;;;;;;10.56;64.17871;94673.36;;;;
2019/04/25 05:45:15;;;;;;;5.499999;2.3;;;;;;;10.56;64.17871;94673.36;;;;
2019/04/25 05:46:17;;;;;;;5.499999;2.3;;;;;;;10.56;64.17871;94673.36;;;;
2019/04/25 05:47:18;;;;;;;5.499999;2.3;;;;;;;10.56;64.17871;94673.36;;;;
2019/04/25 05:48:19;;;;;;;5.499999;2.3;;;;;;;10.56;64.17871;94673.36;;;;
2019/04/25 05:49:20;;;;;;;5.499999;2.3;;;;;;;10.56;64.17871;94673.36;;;;
2019/04/25 05:50:21;;;;;;;5.499999;2.3;;;;;;;10.56;64.17871;94673.36;;;;
2019/04/25 05:51:22;;;;;;;5.499999;2.3;;;;;;;10.56;64.17871;94673.36;;;;
2019/04/25 05:52:23;;;;;;;5.499999;2.3;;;;;;;10.56;64.17871;94673.36;;;;
2019/04/25 05:53:24;;;;;;;5.499999;2.3;;;;;;;10.56;64.17871;94673.36;;;;
2019/04/25 05:54:25;;;;;;;5.499999;2.3;;;;;;;10.56;64.17871;94673.36;;;;
2019/04/25 05:55:26;;;;;;;5.499999;2.3;;;;;;;10.56;64.17871;94673.36;;;;
2019/04/25 05:56:27;;;;;;;5.499999;2.3;;;;;;;10.56;64.17871;94673.36;;;;
2019/04/25 05:57:28;;;;;;;5.499999;2.3;;;;;;;10.56;64.17871;94673.36;;;;
2019/04/25 05:58:29;;;;;;;5.499999;2.3;;;;;;;10.56;64.17871;94673.36;;;;
2019/04/25 05:59:30;;;;;;;5.499999;2.3;;;;;;;10.56;64.17871;94673.36;;;;
2019/04/25 06:00:32;;;;;;;5.499999;2.3;;;;;;;10.56;64.17871;94673.36;;;;
2019/04/25 06:01:33;;;;;;;5.499999;2.3;;;;;;;10.56;64.17871;94673.36;;;;
2019/04/25 06:02:34;;;;;;;5.499999;2.3;;;;;;;10.56;64.17871;94673.36;;;;
2019/04/25 06:03:35;;;;;;;5.499999;2.3;;;;;;;10.56;64.17871;94673.36;;;;
2019/04/25 06:04:36;;;;;;;5.499999;2.3;;;;;;;10.56;64.17871;94673.36;;;;
2019/04/25 06:05:37;;;;;;;6.25;2.1;;;;;;;11.68;62.82617;94672.99;;;;
2019/04/25 06:06:38;;;;;;;6.25;2.1;;;;;;;11.68;62.82617;94672.99;;;;
2019/04/25 06:07:39;;;;;;;6.25;2.1;;;;;;;11.68;62.82617;94672.99;;;;
2019/04/25 06:08:47;;;;;;;6.25;2.1;;;;;;;11.68;62.82617;94672.99;;;;
2019/04/25 06:10:11;;;;;;;6.25;2.1;;;;;;;11.68;62.82617;94672.99;;;;
2019/04/25 06:11:21;;;;;;;6.25;2.1;;;;;;;11.68;62.82617;94672.99;;;;
2019/04/25 06:12:35;;;;;;;6.25;2.1;;;;;;;11.68;62.82617;94672.99;;;;
2019/04/25 06:13:41;;;;;;;6.25;2.1;;;;;;;11.68;62.82617;94672.99;;;;
2019/04/25 06:14:42;;;;;;;6.25;2.1;;;;;;;11.68;62.82617;94672.99;;;;
2019/04/25 06:15:44;;;;;;;6.25;2.1;;;;;;;11.68;62.82617;94672.99;;;;
2019/04/25 06:16:45;;;;;;;8.700001;2.4;;;;;;;12.24;62.28125;94674.24;;;;
2019/04/25 06:18:55;;;;;;;8.700001;2.4;;;;;;;12.24;62.28125;94674.24;;;;
2019/04/25 06:19:58;;;;;;;8.700001;2.4;;;;;;;12.24;62.28125;94674.24;;;;
2019/04/25 06:20:59;;;;;;;8.700001;2.4;;;;;;;12.24;62.28125;94674.24;;;;
2019/04/25 06:22:00;;;;;;;8.700001;2.4;;;;;;;12.24;62.28125;94674.24;;;;